Time;durP1;ratioP1;P1;durP2;ratioP2;P2;SDS_P1;SDS_P2;PMS_P1;PMS_P2;Temp;Humidity;BMP_temperature;BMP_pressure;BME280_temperature;BME280_humidity;BME280_pressure;Samples;Min_cycle;Max_cycle;Signal;HPM_P1;HPM_P2
2023/08/04 00:01:54;;;;;;;7.10;6.40;;;27.30;99.90;;;;;;5111818;27;20458;-82
2023/08/04 00:04:20;;;;;;;7.13;6.53;;;27.30;99.90;;;;;;5111828;27;20477;-83
2023/08/04 00:06:46;;;;;;;7.60;6.80;;;27.20;99.90;;;;;;5129638;27;20575;-76
2023/08/04 00:09:11;;;;;;;7.70;7.00;;;27.20;99.90;;;;;;5129902;27;20209;-83
2023/08/04 00:11:37;;;;;;;6.63;5.93;;;27.20;99.90;;;;;;5130266;27;20332;-81
2023/08/04 00:14:03;;;;;;;7.40;6.20;;;27.10;99.90;;;;;;5129993;27;20175;-83
2023/08/04 00:16:29;;;;;;;7.10;6.50;;;27.10;99.90;;;;;;5129701;27;20167;-81
2023/08/04 00:18:54;;;;;;;10.10;7.67;;;27.10;99.90;;;;;;5129681;27;20446;-76
2023/08/04 00:21:20;;;;;;;10.00;7.40;;;27.10;99.90;;;;;;5129463;27;20210;-81
2023/08/04 00:23:45;;;;;;;8.93;6.80;;;27.10;99.90;;;;;;5130109;27;20188;-76
2023/08/04 00:26:11;;;;;;;6.67;6.13;;;27.00;99.90;;;;;;5129503;27;20610;-83
2023/08/04 00:28:37;;;;;;;7.20;6.43;;;26.90;99.90;;;;;;5111563;27;20558;-81
2023/08/04 00:31:03;;;;;;;8.00;7.17;;;26.90;99.90;;;;;;5111247;27;20214;-76
2023/08/04 00:33:29;;;;;;;7.03;6.43;;;26.90;99.90;;;;;;5129889;27;20399;-80
2023/08/04 00:35:54;;;;;;;7.10;6.40;;;26.90;99.90;;;;;;5111039;27;20282;-83
2023/08/04 00:38:20;;;;;;;7.93;7.10;;;26.80;99.90;;;;;;5111308;27;20179;-81
2023/08/04 00:40:46;;;;;;;7.63;6.90;;;26.70;99.90;;;;;;5129592;27;20211;-83
2023/08/04 00:43:12;;;;;;;7.83;6.70;;;26.70;99.90;;;;;;5111702;27;20178;-82
2023/08/04 00:45:38;;;;;;;8.20;7.33;;;26.60;99.90;;;;;;5110780;27;20423;-82
2023/08/04 00:48:05;;;;;;;8.00;7.03;;;26.60;99.90;;;;;;5129845;27;20433;-82
2023/08/04 00:50:32;;;;;;;7.33;6.63;;;26.60;99.90;;;;;;5129433;27;20438;-83
2023/08/04 00:52:59;;;;;;;10.30;7.97;;;26.60;99.90;;;;;;5129745;27;20399;-76
2023/08/04 00:55:26;;;;;;;8.90;8.10;;;26.50;99.90;;;;;;5110602;27;20456;-82
2023/08/04 00:57:54;;;;;;;8.60;7.70;;;26.50;99.90;;;;;;5111057;27;20498;-76
2023/08/04 01:00:19;;;;;;;8.87;7.27;;;26.40;99.90;;;;;;5127669;27;20442;-82
2023/08/04 01:02:45;;;;;;;8.07;7.23;;;26.40;99.90;;;;;;5110817;27;20509;-76
2023/08/04 01:05:11;;;;;;;8.43;7.60;;;26.30;99.90;;;;;;5129049;27;20612;-76
2023/08/04 01:07:52;;;;;;;8.57;7.60;;;26.30;99.90;;;;;;5110247;27;20498;-75
2023/08/04 01:10:31;;;;;;;9.23;7.63;;;26.20;99.90;;;;;;5128865;27;20709;-76
2023/08/04 01:13:05;;;;;;;9.20;8.30;;;26.20;99.90;;;;;;5129162;27;20395;-76
2023/08/04 01:15:32;;;;;;;9.03;7.70;;;26.20;99.90;;;;;;5128266;27;20431;-82
2023/08/04 01:17:58;;;;;;;7.90;7.20;;;26.20;99.90;;;;;;5110675;27;20791;-83
2023/08/04 01:20:25;;;;;;;8.57;7.23;;;26.10;99.90;;;;;;5110000;27;20835;-83
2023/08/04 01:22:52;;;;;;;8.20;7.40;;;26.10;99.90;;;;;;5128905;27;20400;-76
2023/08/04 01:25:21;;;;;;;8.03;7.33;;;26.10;99.90;;;;;;5109904;27;20458;-83
2023/08/04 01:27:56;;;;;;;8.10;7.27;;;26.10;99.90;;;;;;5110384;27;20772;-83
2023/08/04 01:30:25;;;;;;;8.23;7.40;;;26.10;99.90;;;;;;5109942;27;20557;-76
2023/08/04 01:32:50;;;;;;;8.80;7.90;;;26.10;99.90;;;;;;5128971;27;20395;-76
2023/08/04 01:35:17;;;;;;;9.10;8.30;;;26.10;99.90;;;;;;5128494;27;20446;-83
2023/08/04 01:37:43;;;;;;;8.43;7.33;;;26.00;99.90;;;;;;5110191;27;20442;-76
2023/08/04 01:40:13;;;;;;;12.27;8.17;;;26.00;99.90;;;;;;5128323;27;20447;-76
2023/08/04 01:42:39;;;;;;;8.53;7.33;;;26.00;99.90;;;;;;5129044;27;20537;-83
2023/08/04 01:45:06;;;;;;;8.67;7.40;;;26.00;99.90;;;;;;5127747;27;20443;-76
2023/08/04 01:47:32;;;;;;;8.20;7.50;;;26.00;99.90;;;;;;5110222;27;20399;-76
2023/08/04 01:49:58;;;;;;;7.87;7.13;;;25.90;99.90;;;;;;5109017;27;20462;-83
2023/08/04 01:52:23;;;;;;;9.70;7.67;;;25.90;99.90;;;;;;5128657;27;20970;-77
2023/08/04 01:54:49;;;;;;;9.77;7.80;;;25.90;99.90;;;;;;5109221;27;20574;-76
2023/08/04 01:57:14;;;;;;;11.73;8.07;;;25.80;99.90;;;;;;5109941;27;20260;-76
2023/08/04 01:59:40;;;;;;;9.17;7.90;;;25.80;99.90;;;;;;5109319;27;20199;-76
2023/08/04 02:02:07;;;;;;;7.97;7.20;;;25.80;99.90;;;;;;5109754;27;20305;-79
2023/08/04 02:04:33;;;;;;;7.90;7.13;;;25.80;99.90;;;;;;5127314;27;20191;-82
2023/08/04 02:06:58;;;;;;;8.70;7.70;;;25.80;99.90;;;;;;5109472;27;20789;-83
2023/08/04 02:09:27;;;;;;;8.37;7.57;;;25.70;99.90;;;;;;5126700;27;21066;-83
2023/08/04 02:11:57;;;;;;;8.73;7.93;;;25.70;99.90;;;;;;5127690;27;20166;-76
2023/08/04 02:14:23;;;;;;;8.77;7.83;;;25.70;99.90;;;;;;5127367;27;20538;-76
2023/08/04 02:16:50;;;;;;;10.10;8.03;;;25.60;99.90;;;;;;5127202;27;20404;-76
2023/08/04 02:19:16;;;;;;;9.00;7.30;;;25.60;99.90;;;;;;5127400;27;20966;-83
2023/08/04 02:21:41;;;;;;;9.90;7.60;;;25.60;99.90;;;;;;5109213;27;20523;-76
2023/08/04 02:24:07;;;;;;;12.70;7.57;;;25.60;99.90;;;;;;5108854;27;20416;-76
2023/08/04 02:26:33;;;;;;;11.80;8.10;;;25.60;99.90;;;;;;5127837;27;20173;-80
2023/08/04 02:28:59;;;;;;;9.13;8.10;;;25.60;99.90;;;;;;5127440;27;20182;-76
2023/08/04 02:31:27;;;;;;;10.63;8.00;;;25.60;99.90;;;;;;5127193;27;20246;-76
2023/08/04 02:33:54;;;;;;;8.63;7.70;;;25.50;99.90;;;;;;5108932;27;20398;-75
2023/08/04 02:36:20;;;;;;;8.13;7.33;;;25.50;99.90;;;;;;5127267;27;20982;-76
2023/08/04 02:38:46;;;;;;;8.60;7.80;;;25.50;99.90;;;;;;5127395;27;20410;-82
2023/08/04 02:41:12;;;;;;;8.40;7.60;;;25.50;99.90;;;;;;5108487;27;20486;-81
2023/08/04 02:43:38;;;;;;;7.63;6.93;;;25.40;99.90;;;;;;5127544;27;20170;-76
2023/08/04 02:46:04;;;;;;;8.00;7.30;;;25.40;99.90;;;;;;5108332;27;20614;-83
2023/08/04 02:48:33;;;;;;;8.73;7.97;;;25.30;99.90;;;;;;5127274;27;20680;-76
2023/08/04 02:51:10;;;;;;;10.40;7.13;;;25.30;99.90;;;;;;5108182;27;20804;-83
2023/08/04 02:53:38;;;;;;;8.23;7.53;;;25.30;99.90;;;;;;5127057;27;20476;-76
2023/08/04 02:56:15;;;;;;;7.87;7.23;;;25.30;99.90;;;;;;5108017;27;20443;-76
2023/08/04 02:58:42;;;;;;;8.13;7.03;;;25.30;99.90;;;;;;5109162;27;21039;-76
2023/08/04 03:01:08;;;;;;;8.53;7.73;;;25.20;99.90;;;;;;5126487;27;20479;-82
2023/08/04 03:03:34;;;;;;;9.23;7.70;;;25.20;99.90;;;;;;5127400;27;20910;-83
2023/08/04 03:06:01;;;;;;;8.40;7.67;;;25.20;99.90;;;;;;5126505;27;20503;-83
2023/08/04 03:08:28;;;;;;;13.10;8.30;;;25.20;99.90;;;;;;5126280;27;20342;-76
2023/08/04 03:10:55;;;;;;;9.13;7.93;;;25.20;99.90;;;;;;5126131;27;20648;-75
2023/08/04 03:13:21;;;;;;;14.10;7.53;;;25.10;99.90;;;;;;5127086;27;20497;-76
2023/08/04 03:15:46;;;;;;;8.40;7.60;;;25.10;99.90;;;;;;5125843;27;20951;-76
2023/08/04 03:18:12;;;;;;;11.10;8.40;;;25.20;99.90;;;;;;5107853;27;20655;-76
2023/08/04 03:20:42;;;;;;;8.27;7.47;;;25.10;99.90;;;;;;5126489;27;20489;-82
2023/08/04 03:23:08;;;;;;;9.17;8.10;;;25.10;99.90;;;;;;5107735;27;20343;-76
2023/08/04 03:25:33;;;;;;;9.07;8.17;;;25.10;99.90;;;;;;5108001;27;20450;-76
2023/08/04 03:28:00;;;;;;;7.90;7.10;;;25.00;99.90;;;;;;5126690;27;20630;-76
2023/08/04 03:30:26;;;;;;;7.50;6.80;;;25.00;99.90;;;;;;5107648;27;20239;-83
2023/08/04 03:32:52;;;;;;;8.50;7.50;;;24.90;99.90;;;;;;5126899;27;20402;-83
2023/08/04 03:35:18;;;;;;;8.90;7.57;;;24.90;99.90;;;;;;5126110;27;20242;-75
2023/08/04 03:37:44;;;;;;;7.97;6.23;;;24.80;99.90;;;;;;5108062;28;20257;-76
2023/08/04 03:40:10;;;;;;;7.50;6.40;;;24.70;99.90;;;;;;5107508;28;20206;-76
2023/08/04 03:42:38;;;;;;;8.10;6.00;;;24.70;99.90;;;;;;5124363;28;20542;-76
2023/08/04 03:45:07;;;;;;;13.73;5.93;;;24.70;99.90;;;;;;5106622;28;20750;-76
2023/08/04 03:47:34;;;;;;;7.73;5.70;;;24.70;99.90;;;;;;5107858;28;20941;-82
2023/08/04 03:50:01;;;;;;;8.50;5.90;;;24.60;99.90;;;;;;5125480;27;20436;-82
2023/08/04 03:52:27;;;;;;;8.27;5.63;;;24.60;99.90;;;;;;5126049;28;20676;-76
2023/08/04 03:54:52;;;;;;;6.67;5.77;;;24.60;99.90;;;;;;5107481;28;20984;-82
2023/08/04 03:57:18;;;;;;;7.10;5.27;;;24.50;99.90;;;;;;5126078;28;20181;-75
2023/08/04 03:59:44;;;;;;;6.20;5.60;;;24.40;99.90;;;;;;5107259;28;20205;-75
2023/08/04 04:02:10;;;;;;;10.70;5.63;;;24.40;99.90;;;;;;5107698;28;20335;-76
2023/08/04 04:04:36;;;;;;;8.27;5.50;;;24.40;99.90;;;;;;5107570;28;20334;-82
2023/08/04 04:07:01;;;;;;;6.80;5.63;;;24.40;99.90;;;;;;5107383;28;20489;-75
2023/08/04 04:09:27;;;;;;;5.83;5.27;;;24.40;99.90;;;;;;5124621;27;20198;-75
2023/08/04 04:11:52;;;;;;;5.80;5.13;;;24.30;99.90;;;;;;5126325;28;20179;-80
2023/08/04 04:14:18;;;;;;;6.50;5.90;;;24.40;99.90;;;;;;5107358;28;20247;-76
2023/08/04 04:16:44;;;;;;;6.37;5.77;;;24.40;99.90;;;;;;5101683;28;20243;-75
2023/08/04 04:19:10;;;;;;;9.20;5.43;;;24.40;99.90;;;;;;5124465;27;20233;-76
2023/08/04 04:21:37;;;;;;;7.23;5.40;;;24.30;99.90;;;;;;5106825;28;20216;-75
2023/08/04 04:24:03;;;;;;;5.20;4.67;;;24.30;99.90;;;;;;5120018;27;20172;-76
2023/08/04 04:26:29;;;;;;;6.20;5.70;;;24.30;99.90;;;;;;5106096;28;20973;-76
2023/08/04 04:28:55;;;;;;;7.43;5.17;;;24.30;99.90;;;;;;5126109;27;20529;-82
2023/08/04 04:31:21;;;;;;;5.33;4.83;;;24.30;99.90;;;;;;5107121;28;20525;-77
2023/08/04 04:33:46;;;;;;;5.63;5.10;;;24.30;99.90;;;;;;5125639;28;20454;-81
2023/08/04 04:36:12;;;;;;;5.53;5.03;;;24.30;99.90;;;;;;5128980;27;20468;-79
2023/08/04 04:38:37;;;;;;;6.47;5.80;;;24.30;99.90;;;;;;5111491;27;20182;-75
2023/08/04 04:41:03;;;;;;;6.37;5.80;;;24.30;99.90;;;;;;5129234;27;20217;-83
2023/08/04 04:43:30;;;;;;;9.80;5.47;;;24.40;99.90;;;;;;5128777;27;20665;-76
2023/08/04 04:45:56;;;;;;;5.87;4.77;;;24.30;99.90;;;;;;5099822;27;20561;-76
2023/08/04 04:48:24;;;;;;;5.50;5.00;;;24.40;99.90;;;;;;5101134;27;20468;-76
2023/08/04 04:50:51;;;;;;;6.00;5.50;;;24.40;99.90;;;;;;5099359;27;20954;-82
2023/08/04 04:53:17;;;;;;;13.27;5.60;;;24.40;99.90;;;;;;5098943;27;20413;-75
2023/08/04 04:55:43;;;;;;;5.70;5.00;;;24.50;99.90;;;;;;5117440;27;20562;-83
2023/08/04 04:58:09;;;;;;;6.10;5.60;;;24.50;99.90;;;;;;5118908;27;20398;-76
2023/08/04 05:00:35;;;;;;;5.23;4.73;;;24.60;99.90;;;;;;5117616;27;20295;-82
2023/08/04 05:03:06;;;;;;;6.57;5.47;;;24.60;99.90;;;;;;5097677;27;20942;-82
2023/08/04 05:05:32;;;;;;;9.13;5.90;;;24.60;99.90;;;;;;5098852;27;20442;-76
2023/08/04 05:07:58;;;;;;;6.13;5.63;;;24.70;99.90;;;;;;5116938;27;20395;-75
2023/08/04 05:10:24;;;;;;;5.80;5.30;;;24.70;99.90;;;;;;5099799;27;20427;-82
2023/08/04 05:12:50;;;;;;;6.43;5.00;;;24.80;99.90;;;;;;5117702;27;20789;-82
2023/08/04 05:15:16;;;;;;;5.73;5.23;;;24.80;99.90;;;;;;5100333;27;20463;-77
2023/08/04 05:17:42;;;;;;;5.83;5.23;;;24.90;99.90;;;;;;5098487;27;20404;-76
2023/08/04 05:20:08;;;;;;;5.43;5.00;;;24.90;99.90;;;;;;5099241;27;20694;-83
2023/08/04 05:22:34;;;;;;;8.40;5.50;;;24.90;99.90;;;;;;5118761;27;20207;-75
2023/08/04 05:24:59;;;;;;;6.57;5.60;;;25.00;99.90;;;;;;5116533;27;20462;-83
2023/08/04 05:27:25;;;;;;;6.57;5.60;;;25.00;99.90;;;;;;5118309;27;20663;-76
2023/08/04 05:29:51;;;;;;;7.83;4.97;;;25.00;99.90;;;;;;5117838;27;20679;-82
2023/08/04 05:32:17;;;;;;;6.37;5.80;;;25.10;99.90;;;;;;5117060;27;20427;-75
2023/08/04 05:34:42;;;;;;;8.43;5.27;;;25.20;99.90;;;;;;5098521;27;20741;-83
2023/08/04 05:37:08;;;;;;;8.30;5.70;;;25.20;99.90;;;;;;5098856;27;20602;-82
2023/08/04 05:39:34;;;;;;;6.60;6.00;;;25.30;99.90;;;;;;5093376;28;20676;-75
2023/08/04 05:42:01;;;;;;;6.07;5.33;;;25.30;99.90;;;;;;5110000;27;20713;-76
2023/08/04 05:44:28;;;;;;;6.10;5.30;;;25.40;99.90;;;;;;5107431;27;20206;-76
2023/08/04 05:46:53;;;;;;;8.27;5.87;;;25.50;99.90;;;;;;5107182;27;20407;-76
2023/08/04 05:49:19;;;;;;;7.93;6.17;;;25.50;99.90;;;;;;5125360;27;20485;-83
2023/08/04 05:51:46;;;;;;;6.90;5.67;;;25.60;99.90;;;;;;5105797;27;20479;-81
2023/08/04 05:54:12;;;;;;;6.47;5.90;;;25.60;99.90;;;;;;5124186;27;20290;-83
2023/08/04 05:56:37;;;;;;;7.17;6.43;;;25.70;99.90;;;;;;5108026;27;20419;-83
2023/08/04 05:59:03;;;;;;;6.97;6.37;;;25.80;99.90;;;;;;5104170;27;20426;-76
2023/08/04 06:01:29;;;;;;;6.30;5.70;;;25.80;99.90;;;;;;5122922;27;20260;-76
2023/08/04 06:03:55;;;;;;;6.77;6.03;;;26.00;99.90;;;;;;5094277;28;20175;-83
2023/08/04 06:06:21;;;;;;;7.73;6.03;;;26.00;99.90;;;;;;5100948;27;20411;-81
2023/08/04 06:08:47;;;;;;;6.57;5.97;;;26.10;99.90;;;;;;5121089;27;20244;-83
2023/08/04 06:11:14;;;;;;;6.60;6.00;;;26.20;99.90;;;;;;5121882;27;20451;-82
2023/08/04 06:13:40;;;;;;;7.40;6.63;;;26.20;99.90;;;;;;5120494;27;20436;-76
2023/08/04 06:16:06;;;;;;;6.50;5.90;;;26.30;99.90;;;;;;5120880;27;20534;-83
2023/08/04 06:18:32;;;;;;;6.77;6.17;;;26.40;99.90;;;;;;5123083;27;20991;-76
2023/08/04 06:20:58;;;;;;;7.40;6.70;;;26.40;99.90;;;;;;5123654;27;20569;-76
2023/08/04 06:23:23;;;;;;;7.80;7.10;;;26.40;99.90;;;;;;5101272;27;20518;-75
2023/08/04 06:25:49;;;;;;;11.63;7.57;;;26.50;99.90;;;;;;5122170;27;20435;-84
2023/08/04 06:28:15;;;;;;;7.60;6.67;;;26.60;99.90;;;;;;5106400;27;20232;-82
2023/08/04 06:30:41;;;;;;;7.73;6.93;;;26.60;99.90;;;;;;5106799;27;20590;-83
2023/08/04 06:33:07;;;;;;;7.90;7.03;;;26.60;99.90;;;;;;5125904;27;20485;-83
2023/08/04 06:35:33;;;;;;;7.60;6.80;;;26.70;99.90;;;;;;5124474;27;20526;-84
2023/08/04 06:37:59;;;;;;;7.63;6.93;;;26.80;99.90;;;;;;5125255;27;20195;-76
2023/08/04 06:40:25;;;;;;;7.33;6.70;;;26.90;99.90;;;;;;5124923;27;20450;-82
2023/08/04 06:42:52;;;;;;;7.87;7.17;;;26.90;99.90;;;;;;5125058;27;20426;-82
2023/08/04 06:45:18;;;;;;;10.63;7.47;;;27.00;99.90;;;;;;5105368;27;20501;-83
2023/08/04 06:47:43;;;;;;;7.17;6.47;;;27.00;99.90;;;;;;5101830;27;20459;-76
2023/08/04 06:50:09;;;;;;;7.77;7.07;;;27.00;99.90;;;;;;5105241;27;20210;-76
2023/08/04 06:52:35;;;;;;;7.40;6.70;;;27.10;99.90;;;;;;5123133;27;20206;-83
2023/08/04 06:55:01;;;;;;;7.07;6.47;;;27.10;99.90;;;;;;5105337;27;20446;-76
2023/08/04 06:57:27;;;;;;;7.77;6.93;;;27.20;99.90;;;;;;5123462;27;20520;-78
2023/08/04 06:59:53;;;;;;;6.67;6.07;;;27.20;99.90;;;;;;5123255;27;20252;-75
2023/08/04 07:02:19;;;;;;;6.77;6.13;;;27.30;99.90;;;;;;5123730;27;20455;-76
2023/08/04 07:04:44;;;;;;;7.20;6.60;;;27.40;99.90;;;;;;5122437;27;20203;-83
2023/08/04 07:07:10;;;;;;;9.83;6.80;;;27.40;99.90;;;;;;5095588;27;20217;-81
2023/08/04 07:09:36;;;;;;;6.97;6.27;;;27.40;99.90;;;;;;5123784;27;20279;-82
2023/08/04 07:12:02;;;;;;;8.77;6.70;;;27.50;99.90;;;;;;5106184;27;20175;-76
2023/08/04 07:14:28;;;;;;;7.53;6.90;;;27.60;99.90;;;;;;5124787;27;20449;-76
2023/08/04 07:16:54;;;;;;;9.00;6.03;;;27.60;99.90;;;;;;5105189;27;20419;-77
2023/08/04 07:19:19;;;;;;;11.03;6.90;;;27.70;99.90;;;;;;5123731;27;20635;-75
2023/08/04 07:21:45;;;;;;;9.20;7.13;;;27.70;99.90;;;;;;5125358;27;20299;-75
2023/08/04 07:24:11;;;;;;;12.23;7.00;;;27.80;99.90;;;;;;5124838;27;20219;-75
2023/08/04 07:26:37;;;;;;;8.43;7.63;;;27.80;99.90;;;;;;5125998;27;20176;-83
2023/08/04 07:29:03;;;;;;;12.70;9.00;;;27.90;99.90;;;;;;5122001;27;20428;-76
2023/08/04 07:31:31;;;;;;;8.57;7.87;;;;;;;;;;5105603;27;20178;-81
2023/08/04 07:33:57;;;;;;;9.10;8.13;;;28.00;99.90;;;;;;5093774;27;20427;-81
2023/08/04 07:36:23;;;;;;;9.93;9.03;;;28.00;99.90;;;;;;5100533;27;20489;-79
2023/08/04 07:38:48;;;;;;;7.70;7.00;;;28.10;99.90;;;;;;5115805;27;20584;-78
2023/08/04 07:41:21;;;;;;;9.37;8.53;;;28.10;99.90;;;;;;5095167;28;20227;-79
2023/08/04 07:43:47;;;;;;;11.00;9.90;;;28.20;99.90;;;;;;5100428;28;20576;-79
2023/08/04 07:46:23;;;;;;;11.77;8.90;;;28.20;99.90;;;;;;5100443;28;20822;-79
2023/08/04 07:48:51;;;;;;;9.43;8.53;;;28.30;99.90;;;;;;5100689;28;20795;-81
2023/08/04 07:51:17;;;;;;;12.33;8.90;;;28.40;99.90;;;;;;5098091;28;20834;-82
2023/08/04 07:53:42;;;;;;;9.20;8.40;;;28.50;99.90;;;;;;5113261;28;20501;-79
2023/08/04 07:56:08;;;;;;;8.83;8.03;;;28.60;99.90;;;;;;5110658;28;20450;-82
2023/08/04 07:58:34;;;;;;;8.20;7.43;;;28.60;99.90;;;;;;5100887;28;20569;-82
2023/08/04 08:01:00;;;;;;;7.17;6.47;;;28.70;99.90;;;;;;5100901;28;20217;-79
2023/08/04 08:03:26;;;;;;;7.13;6.53;;;28.70;99.90;;;;;;5117649;28;20260;-81
2023/08/04 08:05:51;;;;;;;7.00;6.27;;;28.80;99.90;;;;;;5096658;28;21031;-81
2023/08/04 08:08:18;;;;;;;8.47;7.67;;;28.90;99.90;;;;;;5117072;28;20700;-79
2023/08/04 08:10:44;;;;;;;7.37;6.77;;;28.90;99.90;;;;;;5103967;27;20201;-80
2023/08/04 08:13:10;;;;;;;8.27;7.57;;;28.90;99.90;;;;;;5126704;27;20933;-79
2023/08/04 08:15:36;;;;;;;11.20;7.60;;;28.90;99.90;;;;;;5126616;27;20976;-79
2023/08/04 08:18:03;;;;;;;7.70;7.00;;;29.00;99.90;;;;;;5121493;27;20468;-85
2023/08/04 08:20:29;;;;;;;8.37;7.67;;;29.10;99.90;;;;;;5092222;28;20238;-87
2023/08/04 08:22:56;;;;;;;9.00;7.03;;;29.20;99.90;;;;;;5124248;27;20969;-79
2023/08/04 08:25:22;;;;;;;8.43;7.63;;;29.20;99.90;;;;;;5107198;27;20594;-86
2023/08/04 08:27:48;;;;;;;9.93;7.80;;;29.30;99.90;;;;;;5126888;27;20397;-80
2023/08/04 08:30:14;;;;;;;7.90;7.20;;;29.30;99.90;;;;;;5106645;27;20495;-79
2023/08/04 08:32:40;;;;;;;8.23;7.43;;;29.40;99.90;;;;;;5123267;27;20245;-85
2023/08/04 08:35:06;;;;;;;8.73;7.57;;;29.50;99.90;;;;;;5124737;27;20211;-79
2023/08/04 08:37:31;;;;;;;9.57;8.73;;;29.60;99.90;;;;;;5121561;27;20175;-79
2023/08/04 08:39:57;;;;;;;9.63;8.67;;;29.60;99.90;;;;;;5104285;27;20457;-80
2023/08/04 08:42:23;;;;;;;9.20;8.40;;;29.60;99.90;;;;;;5123313;27;20727;-79
2023/08/04 08:44:49;;;;;;;8.53;7.67;;;29.60;99.90;;;;;;5103946;27;20228;-78
2023/08/04 08:47:17;;;;;;;9.43;8.60;;;29.70;99.90;;;;;;5104705;27;20365;-86
2023/08/04 08:49:47;;;;;;;9.30;8.30;;;29.70;99.90;;;;;;5104598;27;20454;-86
2023/08/04 08:52:13;;;;;;;9.00;8.03;;;29.80;99.90;;;;;;5085683;28;20484;-79
2023/08/04 08:54:39;;;;;;;9.30;7.50;;;29.80;99.90;;;;;;5084598;28;20455;-79
2023/08/04 08:57:05;;;;;;;8.80;8.00;;;29.90;99.90;;;;;;5124009;27;20189;-86
2023/08/04 08:59:32;;;;;;;8.77;7.60;;;29.80;99.90;;;;;;5124423;27;20474;-79
2023/08/04 09:02:02;;;;;;;8.80;7.75;;;29.90;99.90;;;;;;5102368;27;20472;-79
2023/08/04 09:04:33;;;;;;;9.20;7.70;;;29.90;99.90;;;;;;5104190;27;20450;-86
2023/08/04 09:06:59;;;;;;;8.70;7.80;;;29.90;99.90;;;;;;5126132;27;21005;-86
2023/08/04 09:09:25;;;;;;;8.70;7.83;;;30.00;99.90;;;;;;5104245;27;20682;-79
2023/08/04 09:11:52;;;;;;;7.87;7.07;;;30.10;99.90;;;;;;5125549;27;20242;-79
2023/08/04 09:14:17;;;;;;;9.03;8.13;;;30.10;99.90;;;;;;5107894;27;20309;-79
2023/08/04 09:16:43;;;;;;;9.67;8.77;;;30.20;99.90;;;;;;5126396;27;20402;-79
2023/08/04 09:19:10;;;;;;;9.00;8.10;;;30.20;99.90;;;;;;5095629;28;20242;-86
2023/08/04 09:21:36;;;;;;;9.60;8.70;;;30.30;99.90;;;;;;5099781;28;20475;-86
2023/08/04 09:24:04;;;;;;;8.10;7.40;;;30.30;99.90;;;;;;5105254;28;20839;-87
2023/08/04 09:26:46;;;;;;;9.20;8.40;;;30.30;99.90;;;;;;5102665;28;20883;-79
2023/08/04 09:29:14;;;;;;;9.13;8.23;;;30.50;99.90;;;;;;5105660;28;20453;-86
2023/08/04 09:31:47;;;;;;;8.10;7.40;;;30.60;99.90;;;;;;5096916;28;20511;-79
2023/08/04 09:34:13;;;;;;;8.33;7.57;;;30.60;99.90;;;;;;5103462;28;20801;-79
2023/08/04 09:36:42;;;;;;;9.67;8.60;;;30.60;99.90;;;;;;5105534;28;20434;-80
2023/08/04 09:39:12;;;;;;;12.80;10.50;;;30.70;99.90;;;;;;5102784;28;20186;-79
2023/08/04 09:41:43;;;;;;;9.03;8.00;;;30.70;99.90;;;;;;5097198;28;21001;-86
2023/08/04 09:44:10;;;;;;;8.10;7.40;;;30.80;99.90;;;;;;5104112;28;20433;-85
2023/08/04 09:46:49;;;;;;;9.43;8.53;;;30.80;99.90;;;;;;5115548;27;20423;-86
2023/08/04 09:49:15;;;;;;;8.27;7.47;;;30.90;99.90;;;;;;5101197;28;20447;-80
2023/08/04 09:51:41;;;;;;;9.53;8.63;;;31.10;99.90;;;;;;5118611;27;20419;-85
2023/08/04 09:54:08;;;;;;;8.20;7.30;;;31.10;99.90;;;;;;5114726;27;20429;-79
2023/08/04 09:56:34;;;;;;;8.57;7.77;;;31.20;99.90;;;;;;5116413;27;21061;-80
2023/08/04 09:59:01;;;;;;;14.97;8.47;;;31.30;99.90;;;;;;5100006;28;20440;-86
2023/08/04 10:01:28;;;;;;;7.63;7.03;;;31.30;99.90;;;;;;5100906;28;20476;-86
2023/08/04 10:03:57;;;;;;;8.57;7.87;;;31.20;99.90;;;;;;5101596;28;20412;-86
2023/08/04 10:06:24;;;;;;;8.80;7.93;;;31.20;99.90;;;;;;5092283;28;20436;-86
2023/08/04 10:08:53;;;;;;;9.10;8.30;;;31.30;99.90;;;;;;5091086;28;20515;-86
2023/08/04 10:11:23;;;;;;;8.60;7.90;;;31.20;99.90;;;;;;5093691;28;20438;-86
2023/08/04 10:13:54;;;;;;;8.80;8.03;;;31.30;99.90;;;;;;5101369;28;20645;-86
2023/08/04 10:16:25;;;;;;;8.67;8.00;;;31.30;99.90;;;;;;5102231;28;21177;-86
2023/08/04 10:19:02;;;;;;;7.90;7.20;;;31.30;99.90;;;;;;5104662;27;20755;-86
2023/08/04 10:21:33;;;;;;;8.53;7.60;;;31.30;99.90;;;;;;5103814;27;20581;-79
2023/08/04 10:24:01;;;;;;;9.90;8.53;;;31.40;99.90;;;;;;5119244;27;20892;-87
2023/08/04 10:26:30;;;;;;;8.53;7.80;;;31.40;99.90;;;;;;5120032;27;20435;-79
2023/08/04 10:29:08;;;;;;;7.80;7.10;;;31.40;99.90;;;;;;5115828;27;20969;-86
2023/08/04 10:31:55;;;;;;;8.73;8.00;;;31.50;99.90;;;;;;5113385;27;20414;-86
2023/08/04 10:34:37;;;;;;;9.60;7.63;;;31.50;99.90;;;;;;5102953;27;20740;-86
2023/08/04 10:37:11;;;;;;;8.97;7.70;;;31.40;99.90;;;;;;5123058;27;20476;-79
2023/08/04 10:40:03;;;;;;;8.97;8.17;;;31.50;99.90;;;;;;5094813;27;20765;-87
2023/08/04 10:42:31;;;;;;;9.00;8.20;;;31.50;99.90;;;;;;5099777;27;20967;-78
2023/08/04 10:45:09;;;;;;;8.97;8.20;;;31.50;99.90;;;;;;5104581;27;20439;-87
2023/08/04 10:47:43;;;;;;;9.50;8.50;;;31.50;99.90;;;;;;5107279;27;20431;-86
2023/08/04 10:50:10;;;;;;;9.60;8.70;;;31.60;99.90;;;;;;5106280;27;20508;-86
2023/08/04 10:52:38;;;;;;;10.10;8.03;;;31.60;99.90;;;;;;5098699;27;20502;-79
2023/08/04 10:55:08;;;;;;;10.20;8.10;;;31.60;99.90;;;;;;5123573;27;20495;-80
2023/08/04 10:57:37;;;;;;;10.23;8.00;;;31.70;99.90;;;;;;5107940;27;20791;-79
2023/08/04 11:00:09;;;;;;;8.03;7.40;;;31.70;99.90;;;;;;5106584;27;20538;-86
2023/08/04 11:02:36;;;;;;;9.53;8.43;;;31.80;99.90;;;;;;5106029;27;20511;-86
2023/08/04 11:05:06;;;;;;;9.37;8.47;;;31.80;99.90;;;;;;5104446;27;20435;-86
2023/08/04 11:07:32;;;;;;;8.33;7.60;;;31.80;99.90;;;;;;5122417;27;20433;-78
2023/08/04 11:10:04;;;;;;;8.90;8.10;;;31.80;99.90;;;;;;5108969;27;20459;-86
2023/08/04 11:12:31;;;;;;;9.43;8.63;;;31.80;99.90;;;;;;5101644;27;20205;-87
2023/08/04 11:14:59;;;;;;;9.10;8.10;;;31.90;99.90;;;;;;5101784;27;20451;-86
2023/08/04 11:17:24;;;;;;;11.23;7.67;;;31.90;99.90;;;;;;5120568;27;20753;-79
2023/08/04 11:19:51;;;;;;;14.90;13.57;;;31.80;99.90;;;;;;5121557;27;20462;-79
2023/08/04 11:22:21;;;;;;;8.47;7.70;;;31.80;99.90;;;;;;5093446;27;20215;-87
2023/08/04 11:24:49;;;;;;;9.00;8.10;;;31.90;99.90;;;;;;5088728;27;20653;-87
2023/08/04 11:27:15;;;;;;;8.83;8.07;;;31.90;99.90;;;;;;5093206;27;20415;-79
2023/08/04 11:29:42;;;;;;;8.20;7.50;;;32.00;99.90;;;;;;5107704;27;20443;-80
2023/08/04 11:32:20;;;;;;;9.70;7.87;;;32.00;99.90;;;;;;5110035;27;20690;-80
2023/08/04 11:34:46;;;;;;;9.00;8.20;;;32.10;99.90;;;;;;5104959;27;20970;-80
2023/08/04 11:37:12;;;;;;;11.93;8.10;;;32.10;99.90;;;;;;5110349;27;20701;-87
2023/08/04 11:39:40;;;;;;;10.63;8.20;;;32.10;99.90;;;;;;5089408;28;20734;-87
2023/08/04 11:42:13;;;;;;;8.40;7.50;;;32.20;99.90;;;;;;5108910;28;20546;-86
2023/08/04 11:44:43;;;;;;;9.83;8.10;;;32.10;99.90;;;;;;5095317;28;20530;-80
2023/08/04 11:47:10;;;;;;;9.37;8.33;;;32.20;99.90;;;;;;5113796;28;21012;-87
2023/08/04 11:49:36;;;;;;;8.93;8.07;;;32.30;99.90;;;;;;5097523;28;20491;-86
2023/08/04 11:52:11;;;;;;;8.40;7.13;;;32.40;99.90;;;;;;5098644;28;20416;-80
2023/08/04 11:54:54;;;;;;;8.63;7.80;;;32.40;99.90;;;;;;5093240;28;20443;-84
2023/08/04 11:57:20;;;;;;;8.00;7.30;;;32.50;99.90;;;;;;5091203;28;20415;-87
2023/08/04 11:59:47;;;;;;;8.60;7.83;;;32.50;99.90;;;;;;5093565;28;20448;-87
2023/08/04 12:02:14;;;;;;;8.90;7.50;;;32.50;99.90;;;;;;5095917;28;20597;-86
2023/08/04 12:04:39;;;;;;;8.70;7.90;;;32.60;99.90;;;;;;5099011;28;20684;-79
2023/08/04 12:07:07;;;;;;;7.70;7.10;;;32.70;99.90;;;;;;5117955;28;20418;-85
2023/08/04 12:09:34;;;;;;;8.37;7.67;;;32.60;99.90;;;;;;5115178;27;20202;-80
2023/08/04 12:12:00;;;;;;;8.33;7.73;;;32.60;99.90;;;;;;5100388;28;20434;-79
2023/08/04 12:14:26;;;;;;;7.27;6.77;;;32.60;99.90;;;;;;5112831;28;20655;-86
2023/08/04 12:17:00;;;;;;;8.73;8.03;;;32.60;99.90;;;;;;5096062;28;20437;-85
2023/08/04 12:19:32;;;;;;;8.33;7.27;;;32.70;99.90;;;;;;5094711;28;20468;-80
2023/08/04 12:22:00;;;;;;;9.37;7.40;;;32.70;99.90;;;;;;5109307;28;20967;-80
2023/08/04 12:24:28;;;;;;;8.03;7.37;;;32.80;99.90;;;;;;5110132;28;20831;-80
2023/08/04 12:26:58;;;;;;;8.37;7.67;;;32.90;99.90;;;;;;5102338;28;20422;-80
2023/08/04 12:29:28;;;;;;;7.80;7.10;;;33.00;99.90;;;;;;5106106;28;20550;-87
2023/08/04 12:31:55;;;;;;;8.33;7.10;;;32.80;99.90;;;;;;5102340;28;20419;-86
2023/08/04 12:34:21;;;;;;;8.27;7.47;;;32.80;99.90;;;;;;5092102;28;20455;-87
2023/08/04 12:36:47;;;;;;;9.00;8.30;;;32.90;99.90;;;;;;5088331;28;20428;-80
2023/08/04 12:39:13;;;;;;;7.63;7.03;;;32.80;99.90;;;;;;5090493;28;20746;-80
2023/08/04 12:41:39;;;;;;;8.60;7.90;;;32.80;99.90;;;;;;5111548;28;20809;-86
2023/08/04 12:44:05;;;;;;;8.63;7.40;;;32.60;99.90;;;;;;5094108;28;20411;-80
2023/08/04 12:46:31;;;;;;;7.83;7.13;;;32.50;99.90;;;;;;5089176;28;20187;-87